createdAt,value
2023-05-21T00:02:22.888Z,20.07
2023-05-21T00:04:51.459Z,17.90
2023-05-21T00:07:20.434Z,16.87
2023-05-21T00:09:48.517Z,17.37
2023-05-21T00:12:16.629Z,16.80
2023-05-21T00:14:46.137Z,27.40
2023-05-21T00:17:14.194Z,15.40
2023-05-21T00:19:42.465Z,15.97
2023-05-21T00:22:10.599Z,16.83
2023-05-21T00:24:38.700Z,17.23
2023-05-21T00:27:06.994Z,18.07
2023-05-21T00:29:35.053Z,18.53
2023-05-21T00:32:05.904Z,20.27
2023-05-21T00:34:34.115Z,17.87
2023-05-21T00:37:03.036Z,13.87
2023-05-21T00:39:31.219Z,27.83
2023-05-21T00:42:00.478Z,15.53
2023-05-21T00:44:34.457Z,17.43
2023-05-21T00:47:04.114Z,21.40
2023-05-21T00:49:32.541Z,16.77
2023-05-21T00:52:01.658Z,15.30
2023-05-21T00:54:29.982Z,16.20
2023-05-21T00:56:58.401Z,20.53
2023-05-21T00:59:26.793Z,17.50
2023-05-21T01:01:56.390Z,12.70
2023-05-21T01:04:26.234Z,20.70
2023-05-21T01:06:56.244Z,17.30
2023-05-21T01:09:24.364Z,17.67
2023-05-21T01:11:53.691Z,18.77
2023-05-21T01:14:23.664Z,18.30
2023-05-21T01:16:53.044Z,16.50
2023-05-21T01:19:23.611Z,20.90
2023-05-21T01:21:54.144Z,25.30
2023-05-21T01:24:23.847Z,21.87
2023-05-21T01:26:52.390Z,22.90
2023-05-21T01:29:20.874Z,20.20
2023-05-21T01:31:57.936Z,19.73
2023-05-21T01:34:28.751Z,19.30
2023-05-21T01:36:59.272Z,19.27
2023-05-21T01:39:31.750Z,22.33
2023-05-21T01:42:01.630Z,15.37
2023-05-21T01:44:29.783Z,20.50
2023-05-21T01:46:59.619Z,17.57
2023-05-21T01:49:27.841Z,19.33
2023-05-21T01:51:56.243Z,22.00
2023-05-21T01:54:24.812Z,18.90
2023-05-21T01:56:55.776Z,19.37
2023-05-21T01:59:23.931Z,19.77
2023-05-21T02:01:52.080Z,19.80
2023-05-21T02:04:20.179Z,22.10
2023-05-21T02:06:48.254Z,22.83
2023-05-21T02:09:16.307Z,33.53
2023-05-21T02:11:44.461Z,20.80
2023-05-21T02:14:14.266Z,21.97
2023-05-21T02:16:42.515Z,19.00
2023-05-21T02:19:11.584Z,17.47
2023-05-21T02:21:39.724Z,15.17
2023-05-21T02:24:08.234Z,16.67
2023-05-21T02:26:37.339Z,21.67
2023-05-21T02:29:05.678Z,21.30
2023-05-21T02:31:35.116Z,18.53
2023-05-21T02:34:03.332Z,19.30
2023-05-21T02:36:33.393Z,22.33
2023-05-21T02:39:01.673Z,21.17
2023-05-21T02:41:29.800Z,19.93
2023-05-21T02:43:57.851Z,24.47
2023-05-21T02:46:26.041Z,22.27
2023-05-21T02:48:55.602Z,23.47
2023-05-21T02:51:23.698Z,24.43
2023-05-21T02:53:51.782Z,25.63
2023-05-21T02:56:19.998Z,20.90
2023-05-21T02:58:48.061Z,25.90
2023-05-21T03:01:16.858Z,20.37
2023-05-21T03:03:45.063Z,21.53
2023-05-21T03:06:14.528Z,20.37
2023-05-21T03:08:42.625Z,23.10
2023-05-21T03:11:10.989Z,20.43
2023-05-21T03:13:39.124Z,21.43
2023-05-21T03:16:07.427Z,20.63
2023-05-21T03:18:35.518Z,20.23
2023-05-21T03:21:04.490Z,24.57
2023-05-21T03:23:34.885Z,21.23
2023-05-21T03:26:03.189Z,23.90
2023-05-21T03:28:31.289Z,19.90
2023-05-21T03:30:59.419Z,18.87
2023-05-21T03:33:27.521Z,26.17
2023-05-21T03:35:56.057Z,26.37
2023-05-21T03:38:24.132Z,21.60
2023-05-21T03:40:53.579Z,20.27
2023-05-21T03:43:21.651Z,15.30
2023-05-21T03:45:49.729Z,27.17
2023-05-21T03:48:18.162Z,19.83
2023-05-21T03:50:46.262Z,21.23
2023-05-21T03:53:14.891Z,27.90
2023-05-21T03:55:43.028Z,34.30
2023-05-21T03:58:12.636Z,27.07
2023-05-21T04:00:40.721Z,26.03
2023-05-21T04:03:09.650Z,23.67
2023-05-21T04:05:37.999Z,24.83
2023-05-21T04:08:06.874Z,24.03
2023-05-21T04:10:35.644Z,23.10
2023-05-21T04:13:03.811Z,22.77
2023-05-21T04:15:34.789Z,23.63
2023-05-21T04:18:03.102Z,19.80
2023-05-21T04:20:31.205Z,28.33
2023-05-21T04:22:59.305Z,19.00
2023-05-21T04:25:27.389Z,19.17
2023-05-21T04:27:55.458Z,23.60
2023-05-21T04:30:24.080Z,25.00
2023-05-21T04:32:54.788Z,23.60
2023-05-21T04:35:23.483Z,27.63
2023-05-21T04:37:52.094Z,21.23
2023-05-21T04:40:24.504Z,24.63
2023-05-21T04:42:52.712Z,19.27
2023-05-21T04:45:21.264Z,30.13
2023-05-21T04:47:49.406Z,27.10
2023-05-21T04:50:20.359Z,23.80
2023-05-21T04:52:48.525Z,23.50
2023-05-21T04:55:19.078Z,21.53
2023-05-21T04:57:47.240Z,20.10
2023-05-21T05:00:16.439Z,21.90
2023-05-21T05:02:44.614Z,22.77
2023-05-21T05:05:12.821Z,21.43
2023-05-21T05:07:42.265Z,24.30
2023-05-21T05:10:10.563Z,20.47
2023-05-21T05:12:39.039Z,22.27
2023-05-21T05:15:08.114Z,22.03
2023-05-21T05:17:36.304Z,23.27
2023-05-21T05:20:05.143Z,22.90
2023-05-21T05:22:33.232Z,19.17
2023-05-21T05:25:02.733Z,22.80
2023-05-21T05:27:30.854Z,25.47
2023-05-21T05:29:58.937Z,16.47
2023-05-21T05:32:27.126Z,22.50
2023-05-21T05:34:55.256Z,23.77
2023-05-21T05:37:23.330Z,25.40
2023-05-21T05:39:51.420Z,22.83
2023-05-21T05:42:25.114Z,22.40
2023-05-21T05:44:53.197Z,25.40
2023-05-21T05:47:21.874Z,20.37
2023-05-21T05:49:49.975Z,20.10
2023-05-21T05:52:18.081Z,21.80
2023-05-21T05:54:46.194Z,17.70
2023-05-21T05:57:14.365Z,22.07
2023-05-21T05:59:43.796Z,22.47
2023-05-21T06:02:12.036Z,24.67
2023-05-21T06:04:40.123Z,22.80
2023-05-21T06:07:08.195Z,18.53
2023-05-21T06:09:36.548Z,26.17
2023-05-21T06:12:05.422Z,25.10
2023-05-21T06:14:33.536Z,30.27
2023-05-21T06:17:03.015Z,17.77
2023-05-21T06:19:31.240Z,21.00
2023-05-21T06:21:59.444Z,20.30
2023-05-21T06:24:27.521Z,25.60
2023-05-21T06:26:55.573Z,25.43
2023-05-21T06:29:23.644Z,22.57
2023-05-21T06:31:51.804Z,29.67
2023-05-21T06:34:21.290Z,18.83
2023-05-21T06:36:49.792Z,22.37
2023-05-21T06:39:17.918Z,31.60
2023-05-21T06:41:46.102Z,22.37
2023-05-21T06:44:15.714Z,21.30
2023-05-21T06:46:44.112Z,34.70
2023-05-21T06:49:14.430Z,24.97
2023-05-21T06:51:44.075Z,24.50
2023-05-21T06:54:12.134Z,25.53
2023-05-21T06:56:40.171Z,30.20
2023-05-21T06:59:08.344Z,30.80
2023-05-21T07:01:36.535Z,28.43
2023-05-21T07:04:04.790Z,26.53
2023-05-21T07:06:33.109Z,33.03
2023-05-21T07:09:02.827Z,25.07
2023-05-21T07:11:30.971Z,24.20
2023-05-21T07:14:00.515Z,24.57
2023-05-21T07:16:28.955Z,26.70
2023-05-21T07:18:57.091Z,26.70
2023-05-21T07:21:25.711Z,22.73
2023-05-21T07:23:53.784Z,28.60
2023-05-21T07:26:23.194Z,25.50
2023-05-21T07:28:51.271Z,25.00
2023-05-21T07:31:19.385Z,23.20
2023-05-21T07:33:47.538Z,25.43
2023-05-21T07:36:16.189Z,22.67
2023-05-21T07:38:44.829Z,18.70
2023-05-21T07:41:12.951Z,19.80
2023-05-21T07:43:42.378Z,24.80
2023-05-21T07:46:10.659Z,22.10
2023-05-21T07:48:38.726Z,25.47
2023-05-21T07:51:07.292Z,24.90
2023-05-21T07:53:35.428Z,18.67
2023-05-21T07:56:03.506Z,18.90
2023-05-21T07:58:32.559Z,21.80
2023-05-21T08:01:02.054Z,24.33
2023-05-21T08:03:31.292Z,19.27
2023-05-21T08:05:59.560Z,22.03
2023-05-21T08:08:27.682Z,20.13
2023-05-21T08:10:56.228Z,20.90
2023-05-21T08:13:24.302Z,17.37
2023-05-21T08:15:53.656Z,17.87
2023-05-21T08:18:23.803Z,23.20
2023-05-21T08:20:52.110Z,17.60
2023-05-21T08:23:20.240Z,23.30
2023-05-21T08:25:48.270Z,24.37
2023-05-21T08:28:16.347Z,26.83
2023-05-21T08:30:44.405Z,18.93
2023-05-21T08:33:12.565Z,18.50
2023-05-21T08:35:42.046Z,23.80
2023-05-21T08:38:10.133Z,15.27
2023-05-21T08:40:38.209Z,27.30
2023-05-21T08:43:06.394Z,20.87
2023-05-21T08:45:38.421Z,17.60
2023-05-21T08:48:07.687Z,19.40
2023-05-21T08:50:35.923Z,24.43
2023-05-21T08:53:12.708Z,19.10
2023-05-21T08:55:54.090Z,17.90
2023-05-21T08:58:23.112Z,18.60
2023-05-21T09:00:51.468Z,18.30
2023-05-21T09:03:22.539Z,20.17
2023-05-21T09:05:51.791Z,16.70
2023-05-21T09:08:28.015Z,20.57
2023-05-21T09:10:56.110Z,17.20
2023-05-21T09:13:26.147Z,17.87
2023-05-21T09:15:54.291Z,21.90
2023-05-21T09:18:22.408Z,20.47
2023-05-21T09:20:50.664Z,22.30
2023-05-21T09:23:20.936Z,21.40
2023-05-21T09:25:51.939Z,20.97
2023-05-21T09:28:20.993Z,17.57
2023-05-21T09:30:50.963Z,19.67
2023-05-21T09:33:27.054Z,14.80
2023-05-21T09:35:55.288Z,20.33
2023-05-21T09:38:26.022Z,16.97
2023-05-21T09:40:56.600Z,17.10
2023-05-21T09:43:24.740Z,25.27
2023-05-21T09:45:53.529Z,16.97
2023-05-21T09:48:35.555Z,22.03
2023-05-21T09:51:11.470Z,19.87
2023-05-21T09:53:45.966Z,21.53
2023-05-21T09:56:14.547Z,20.80
2023-05-21T09:58:43.788Z,14.33
2023-05-21T10:01:13.156Z,24.40
2023-05-21T10:03:42.023Z,13.37
2023-05-21T10:06:10.596Z,18.83
2023-05-21T10:08:43.993Z,14.83
2023-05-21T10:11:13.757Z,17.20
2023-05-21T10:13:48.793Z,13.87
2023-05-21T10:16:17.579Z,21.30
2023-05-21T10:18:46.840Z,26.33
2023-05-21T10:21:15.729Z,15.07
2023-05-21T10:23:45.555Z,15.67
2023-05-21T10:26:16.298Z,17.40
2023-05-21T10:28:45.371Z,16.93
2023-05-21T10:31:13.737Z,13.00
2023-05-21T10:33:43.459Z,16.03
2023-05-21T10:36:11.683Z,13.97
2023-05-21T10:38:40.780Z,15.00
2023-05-21T10:41:09.369Z,12.17
2023-05-21T10:43:57.663Z,17.93
2023-05-21T10:46:59.052Z,9.70
2023-05-21T10:49:41.234Z,12.20
2023-05-21T10:52:16.119Z,16.50
2023-05-21T10:54:54.444Z,14.67
2023-05-21T10:57:43.968Z,13.27
2023-05-21T11:00:16.806Z,12.80
2023-05-21T11:02:45.739Z,14.87
2023-05-21T11:05:13.986Z,17.27
2023-05-21T11:07:57.678Z,11.50
2023-05-21T11:10:32.725Z,11.10
2023-05-21T11:13:12.039Z,12.97
2023-05-21T11:16:14.635Z,10.00
2023-05-21T11:19:02.487Z,12.37
2023-05-21T11:21:32.202Z,17.57
2023-05-21T11:24:10.980Z,11.20
2023-05-21T11:27:02.279Z,13.80
2023-05-21T11:29:40.522Z,13.10
2023-05-21T11:32:11.731Z,16.77
2023-05-21T11:34:41.955Z,13.07
2023-05-21T11:37:41.861Z,13.73
2023-05-21T11:40:21.010Z,14.60
2023-05-21T11:42:53.648Z,15.53
2023-05-21T11:45:23.031Z,16.23
2023-05-21T11:47:53.668Z,10.03
2023-05-21T11:50:22.006Z,10.07
2023-05-21T11:52:51.220Z,11.60
2023-05-21T11:55:23.608Z,11.60
2023-05-21T11:57:55.167Z,13.13
2023-05-21T12:00:23.618Z,11.00
2023-05-21T12:02:55.796Z,13.60
2023-05-21T12:05:26.393Z,11.07
2023-05-21T12:07:55.506Z,14.90
2023-05-21T12:10:24.313Z,12.07
2023-05-21T12:12:56.449Z,13.30
2023-05-21T12:15:27.035Z,8.83
2023-05-21T12:17:57.878Z,10.07
2023-05-21T12:20:29.156Z,9.60
2023-05-21T12:22:59.230Z,9.33
2023-05-21T12:25:29.978Z,10.23
2023-05-21T12:27:58.808Z,12.70
2023-05-21T12:30:27.710Z,11.83
2023-05-21T12:32:59.514Z,11.80
2023-05-21T12:35:29.935Z,13.30
2023-05-21T12:37:58.301Z,14.67
2023-05-21T12:40:37.969Z,11.47
2023-05-21T12:43:07.159Z,11.57
2023-05-21T12:45:39.369Z,11.07
2023-05-21T12:48:12.659Z,20.03
2023-05-21T12:50:44.516Z,11.33
2023-05-21T12:53:16.036Z,11.97
2023-05-21T12:55:47.550Z,13.20
2023-05-21T12:58:18.820Z,11.13
2023-05-21T13:00:48.870Z,11.60
2023-05-21T13:03:21.264Z,15.00
2023-05-21T13:05:52.602Z,13.53
2023-05-21T13:08:23.998Z,8.40
2023-05-21T13:10:53.628Z,14.30
2023-05-21T13:13:23.231Z,10.27
2023-05-21T13:15:54.461Z,8.77
2023-05-21T13:18:27.136Z,11.93
2023-05-21T13:20:56.779Z,10.10
2023-05-21T13:23:26.390Z,13.10
2023-05-21T13:25:55.966Z,7.57
2023-05-21T13:28:27.163Z,7.40
2023-05-21T13:30:56.727Z,8.83
2023-05-21T13:33:29.403Z,10.20
2023-05-21T13:35:59.070Z,7.03
2023-05-21T13:38:30.314Z,8.77
2023-05-21T13:40:59.885Z,7.80
2023-05-21T13:43:29.477Z,8.27
2023-05-21T13:45:59.019Z,8.40
2023-05-21T13:48:29.892Z,9.63
2023-05-21T13:50:59.360Z,6.17
2023-05-21T13:53:28.939Z,7.13
2023-05-21T13:55:58.472Z,7.70
2023-05-21T13:58:27.970Z,8.40
2023-05-21T14:00:57.607Z,8.50
2023-05-21T14:03:27.805Z,9.20
2023-05-21T14:05:58.821Z,9.87
2023-05-21T14:08:29.457Z,7.20
2023-05-21T14:10:59.386Z,9.83
2023-05-21T14:13:28.926Z,7.27
2023-05-21T14:15:58.489Z,5.40
2023-05-21T14:18:28.042Z,9.60
2023-05-21T14:20:58.981Z,9.40
2023-05-21T14:23:28.375Z,9.20
2023-05-21T14:25:57.848Z,14.50
2023-05-21T14:28:28.508Z,11.67
2023-05-21T14:30:56.874Z,10.40
2023-05-21T14:33:24.976Z,7.28
2023-05-21T14:35:53.437Z,5.37
2023-05-21T14:38:23.218Z,8.60
2023-05-21T14:40:51.665Z,6.30
2023-05-21T14:43:20.070Z,13.30
2023-05-21T14:45:48.544Z,6.60
2023-05-21T14:48:18.616Z,6.83
2023-05-21T14:50:47.019Z,8.20
2023-05-21T14:53:15.377Z,6.57
2023-05-21T14:55:45.514Z,7.77
2023-05-21T14:58:13.910Z,10.00
2023-05-21T15:00:42.494Z,5.80
2023-05-21T15:03:10.916Z,5.27
2023-05-21T15:05:39.629Z,4.00
2023-05-21T15:08:09.593Z,5.13
2023-05-21T15:10:38.110Z,6.17
2023-05-21T15:13:07.943Z,6.10
2023-05-21T15:15:36.727Z,6.23
2023-05-21T15:18:05.608Z,6.73
2023-05-21T15:20:34.092Z,6.83
2023-05-21T15:25:33.496Z,5.80
2023-05-21T15:28:01.665Z,5.23
2023-05-21T15:30:31.156Z,6.00
2023-05-21T15:32:59.228Z,5.77
2023-05-21T15:35:27.469Z,5.57
2023-05-21T15:37:55.623Z,3.73
2023-05-21T15:40:26.157Z,5.83
2023-05-21T15:42:55.408Z,5.40
2023-05-21T15:45:23.528Z,7.37
2023-05-21T15:47:53.069Z,6.10
2023-05-21T15:50:21.266Z,6.00
2023-05-21T15:52:51.012Z,4.57
2023-05-21T15:55:21.481Z,10.53
2023-05-21T15:57:49.531Z,6.83
2023-05-21T16:00:17.746Z,6.63
2023-05-21T16:02:46.028Z,5.77
2023-05-21T16:05:15.613Z,4.37
2023-05-21T16:07:44.457Z,4.97
2023-05-21T16:10:12.737Z,6.00
2023-05-21T16:12:41.110Z,6.13
2023-05-21T16:15:09.944Z,4.57
2023-05-21T16:17:38.048Z,9.80
2023-05-21T16:20:07.464Z,5.63
2023-05-21T16:22:36.981Z,4.73
2023-05-21T16:25:05.744Z,8.03
2023-05-21T16:27:35.150Z,3.77
2023-05-21T16:30:03.305Z,8.10
2023-05-21T16:32:31.442Z,3.97
2023-05-21T16:34:59.620Z,6.43
2023-05-21T16:37:27.882Z,3.80
2023-05-21T16:39:57.307Z,4.53
2023-05-21T16:42:25.337Z,4.40
2023-05-21T16:44:53.466Z,4.00
2023-05-21T16:47:21.606Z,4.03
2023-05-21T16:49:49.808Z,5.43
2023-05-21T16:52:17.853Z,3.50
2023-05-21T16:54:48.753Z,7.60
2023-05-21T16:57:18.597Z,10.00
2023-05-21T16:59:46.937Z,14.77
2023-05-21T17:02:15.515Z,15.37
2023-05-21T17:04:43.903Z,9.10
2023-05-21T17:07:12.301Z,8.03
2023-05-21T17:09:40.707Z,20.67
2023-05-21T17:12:09.378Z,50.00
2023-05-21T17:14:40.218Z,11.30
2023-05-21T17:17:08.797Z,14.73
2023-05-21T17:19:37.455Z,11.47
2023-05-21T17:22:06.026Z,7.80
2023-05-21T17:24:34.432Z,6.23
2023-05-21T17:27:02.805Z,7.47
2023-05-21T17:29:31.190Z,8.17
2023-05-21T17:32:01.044Z,9.23
2023-05-21T17:34:30.513Z,12.57
2023-05-21T17:36:59.386Z,7.97
2023-05-21T17:39:27.950Z,9.80
2023-05-21T17:41:57.187Z,8.93
2023-05-21T17:44:25.678Z,9.37
2023-05-21T17:46:54.136Z,6.77
2023-05-21T17:49:24.061Z,5.33
2023-05-21T17:51:52.488Z,6.77
2023-05-21T17:54:21.357Z,7.57
2023-05-21T17:56:49.758Z,5.60
2023-05-21T17:59:18.204Z,8.40
2023-05-21T18:01:46.595Z,6.27
2023-05-21T18:04:15.019Z,10.33
2023-05-21T18:06:44.871Z,5.27
2023-05-21T18:09:15.144Z,11.43
2023-05-21T18:11:44.738Z,9.17
2023-05-21T18:14:13.199Z,6.27
2023-05-21T18:16:41.978Z,11.43
2023-05-21T18:19:10.560Z,7.60
2023-05-21T18:21:39.503Z,7.37
2023-05-21T18:24:09.669Z,9.00
2023-05-21T18:26:38.088Z,9.30
2023-05-21T18:29:06.627Z,7.90
2023-05-21T18:31:35.095Z,8.40
2023-05-21T18:34:03.670Z,6.93
2023-05-21T18:36:38.375Z,10.73
2023-05-21T18:39:07.141Z,8.37
2023-05-21T18:41:37.336Z,10.70
2023-05-21T18:44:06.419Z,9.87
2023-05-21T18:46:35.000Z,9.90
2023-05-21T18:49:03.589Z,7.10
2023-05-21T18:51:32.050Z,7.57
2023-05-21T18:54:00.446Z,8.70
2023-05-21T18:56:28.833Z,7.87
2023-05-21T18:58:58.589Z,5.73
2023-05-21T19:01:27.122Z,8.73
2023-05-21T19:03:55.585Z,8.73
2023-05-21T19:06:25.469Z,5.60
2023-05-21T19:08:53.930Z,6.17
2023-05-21T19:11:23.702Z,9.90
2023-05-21T19:13:52.282Z,7.73
2023-05-21T19:16:22.116Z,9.80
2023-05-21T19:18:50.898Z,10.03
2023-05-21T19:21:19.415Z,11.20
2023-05-21T19:23:53.130Z,9.03
2023-05-21T19:26:22.697Z,9.33
2023-05-21T19:28:53.390Z,6.63
2023-05-21T19:31:25.248Z,10.67
2023-05-21T19:33:53.991Z,5.47
2023-05-21T19:36:22.591Z,12.47
2023-05-21T19:38:51.228Z,8.80
2023-05-21T19:41:19.947Z,8.77
2023-05-21T19:43:48.372Z,10.53
2023-05-21T19:46:20.019Z,5.40
2023-05-21T19:48:50.314Z,9.20
2023-05-21T19:51:18.907Z,12.67
2023-05-21T19:53:47.310Z,8.77
2023-05-21T19:56:15.763Z,10.37
2023-05-21T19:58:47.093Z,7.90
2023-05-21T20:01:15.862Z,10.83
2023-05-21T20:03:45.490Z,8.60
2023-05-21T20:06:19.012Z,7.70
2023-05-21T20:08:47.611Z,7.40
2023-05-21T20:11:16.072Z,8.83
2023-05-21T20:13:48.571Z,6.73
2023-05-21T20:16:18.248Z,10.90
2023-05-21T20:18:47.340Z,11.93
2023-05-21T20:21:18.393Z,7.70
2023-05-21T20:23:46.610Z,7.20
2023-05-21T20:26:15.290Z,12.50
2023-05-21T20:28:43.548Z,14.70
2023-05-21T20:31:11.949Z,10.90
2023-05-21T20:33:41.039Z,9.07
2023-05-21T20:36:09.242Z,9.80
2023-05-21T20:38:38.669Z,8.90
2023-05-21T20:41:06.748Z,10.37
2023-05-21T20:43:37.334Z,10.63
2023-05-21T20:46:05.719Z,13.60
2023-05-21T20:48:33.977Z,15.80
2023-05-21T20:51:03.324Z,12.43
2023-05-21T20:53:31.439Z,9.13
2023-05-21T20:56:01.477Z,16.17
2023-05-21T20:58:29.671Z,11.80
2023-05-21T21:00:57.786Z,10.30
2023-05-21T21:03:26.045Z,14.23
2023-05-21T21:05:56.410Z,15.50
2023-05-21T21:08:24.497Z,12.10
2023-05-21T21:10:52.577Z,14.50
2023-05-21T21:13:22.031Z,12.23
2023-05-21T21:15:50.137Z,9.93
2023-05-21T21:18:18.295Z,15.83
2023-05-21T21:20:49.550Z,17.43
2023-05-21T21:23:17.920Z,13.00
2023-05-21T21:25:46.206Z,11.87
2023-05-21T21:28:14.265Z,15.60
2023-05-21T21:30:44.205Z,14.70
2023-05-21T21:33:14.317Z,15.53
2023-05-21T21:35:42.891Z,16.27
2023-05-21T21:38:10.992Z,12.43
2023-05-21T21:40:39.339Z,14.23
2023-05-21T21:43:07.628Z,18.20
2023-05-21T21:45:35.765Z,13.00
2023-05-21T21:48:05.833Z,12.60
2023-05-21T21:50:33.933Z,12.80
2023-05-21T21:53:03.491Z,23.80
2023-05-21T21:55:31.637Z,17.97
2023-05-21T21:57:59.729Z,16.93
2023-05-21T22:00:27.803Z,14.50
2023-05-21T22:02:56.709Z,18.87
2023-05-21T22:05:26.274Z,20.87
2023-05-21T22:07:54.329Z,13.03
2023-05-21T22:10:22.400Z,17.50
2023-05-21T22:12:50.530Z,12.40
2023-05-21T22:15:20.800Z,14.40
2023-05-21T22:17:50.073Z,21.90
2023-05-21T22:20:18.558Z,17.97
2023-05-21T22:22:48.135Z,14.27
2023-05-21T22:25:16.228Z,17.60
2023-05-21T22:27:44.492Z,18.60
2023-05-21T22:30:13.297Z,16.50
2023-05-21T22:32:41.756Z,24.10
2023-05-21T22:35:10.504Z,16.67
2023-05-21T22:37:38.600Z,19.00
2023-05-21T22:40:09.754Z,18.03
2023-05-21T22:42:38.063Z,21.80
2023-05-21T22:45:07.443Z,16.10
2023-05-21T22:47:37.159Z,18.20
2023-05-21T22:50:05.782Z,20.93
2023-05-21T22:52:34.420Z,16.23
2023-05-21T22:55:02.981Z,16.67
2023-05-21T22:57:32.427Z,16.80
2023-05-21T23:00:00.504Z,14.03
2023-05-21T23:02:29.746Z,15.53
2023-05-21T23:04:58.189Z,16.40
2023-05-21T23:07:26.345Z,19.07
2023-05-21T23:09:54.438Z,19.40
2023-05-21T23:12:22.564Z,17.37
2023-05-21T23:14:51.995Z,16.80
2023-05-21T23:17:20.087Z,16.13
2023-05-21T23:19:49.926Z,16.90
2023-05-21T23:22:18.061Z,15.77
2023-05-21T23:24:46.300Z,18.33
2023-05-21T23:27:14.377Z,19.93
2023-05-21T23:29:42.465Z,15.33
2023-05-21T23:32:12.435Z,23.23
2023-05-21T23:34:40.537Z,16.67
2023-05-21T23:37:08.599Z,16.70
2023-05-21T23:39:36.759Z,16.40
2023-05-21T23:42:05.173Z,19.73
2023-05-21T23:44:33.310Z,17.07
2023-05-21T23:47:01.410Z,21.53
2023-05-21T23:49:30.845Z,16.53
2023-05-21T23:51:59.792Z,18.50
2023-05-21T23:54:27.835Z,12.57
2023-05-21T23:56:55.920Z,15.67
2023-05-21T23:59:24.065Z,14.60
